createdAt,value
2019-05-21T00:02:08.597Z,96052.33
2019-05-21T00:04:36.680Z,96048.47
2019-05-21T00:07:04.715Z,96056.20
2019-05-21T00:09:32.680Z,96047.12
2019-05-21T00:12:00.780Z,96049.81
2019-05-21T00:14:28.898Z,96054.42
2019-05-21T00:16:57.167Z,96059.65
2019-05-21T00:19:44.360Z,96061.00
2019-05-21T00:22:12.392Z,96066.58
2019-05-21T00:30:20.533Z,96060.44
2019-05-21T00:33:07.581Z,96062.94
2019-05-21T00:35:54.662Z,96063.31
2019-05-21T00:38:42.091Z,96065.23
2019-05-21T00:41:29.237Z,96066.39
2019-05-21T00:46:51.501Z,96073.33
2019-05-21T00:49:19.497Z,96076.58
2019-05-21T00:51:47.512Z,96070.02
2019-05-21T00:54:34.638Z,96077.39
2019-05-21T00:57:02.652Z,96068.86
2019-05-21T00:59:49.723Z,96071.18
2019-05-21T01:02:17.615Z,96070.81
2019-05-21T01:04:59.638Z,96075.98
2019-05-21T01:07:15.134Z,96072.73
2019-05-21T01:09:43.148Z,96071.79
2019-05-21T01:14:58.308Z,96075.84
2019-05-21T01:17:26.187Z,96077.71
2019-05-21T01:19:54.111Z,96078.36
2019-05-21T01:22:22.090Z,96079.67
2019-05-21T01:24:49.973Z,96082.59
2019-05-21T01:27:17.837Z,96082.59
2019-05-21T01:29:45.658Z,96083.81
2019-05-21T01:32:13.659Z,96084.52
2019-05-21T01:34:41.551Z,96082.55
2019-05-21T01:37:09.507Z,96086.65
2019-05-21T01:39:56.500Z,96085.08
2019-05-21T01:42:24.482Z,96082.55
2019-05-21T01:44:52.473Z,96089.72
2019-05-21T01:47:20.563Z,96087.77
2019-05-21T01:49:48.360Z,96092.67
2019-05-21T01:55:03.240Z,96094.63
2019-05-21T01:57:31.464Z,96091.33
2019-05-21T02:02:46.491Z,96087.12
2019-05-21T02:05:14.719Z,96086.34
2019-05-21T02:07:42.597Z,96095.36
2019-05-21T02:10:29.511Z,96094.48
2019-05-21T02:12:57.314Z,96091.93
2019-05-21T02:15:25.191Z,96095.23
2019-05-21T02:17:53.235Z,96111.27
2019-05-21T02:20:21.150Z,96101.76
2019-05-21T02:22:49.513Z,96114.47
2019-05-21T02:25:17.266Z,96111.57
2019-05-21T02:27:45.134Z,96107.91
2019-05-21T02:32:46.436Z,96111.95
2019-05-21T02:38:08.319Z,96100.54
2019-05-21T02:40:36.230Z,96111.33
2019-05-21T02:43:04.109Z,96111.72
2019-05-21T02:45:31.881Z,96110.12
2019-05-21T02:47:59.774Z,96114.05
2019-05-21T02:50:27.734Z,96121.95
2019-05-21T02:52:55.616Z,96112.88
2019-05-21T02:55:42.593Z,96120.41
2019-05-21T02:58:10.602Z,96119.45
2019-05-21T03:00:57.490Z,96122.33
2019-05-21T03:06:13.964Z,96126.58
2019-05-21T03:08:35.657Z,96126.75
2019-05-21T03:11:03.533Z,96127.41
2019-05-21T03:13:50.449Z,96127.97
2019-05-21T03:16:18.585Z,96130.30
2019-05-21T03:18:46.583Z,96132.34
2019-05-21T03:21:14.748Z,96128.89
2019-05-21T03:23:42.507Z,96132.72
2019-05-21T03:26:29.435Z,96133.08
2019-05-21T03:28:57.385Z,96136.86
2019-05-21T03:31:25.168Z,96136.81
2019-05-21T03:33:53.468Z,96130.02
2019-05-21T03:36:32.687Z,96137.60
2019-05-21T03:38:51.320Z,96138.78
2019-05-21T03:41:19.256Z,96135.96
2019-05-21T03:43:47.252Z,96134.91
2019-05-21T03:46:15.040Z,96138.17
2019-05-21T03:49:02.153Z,96134.06
2019-05-21T03:51:30.107Z,96142.59
2019-05-21T03:53:57.994Z,96135.05
2019-05-21T03:56:45.082Z,96142.34
2019-05-21T03:59:12.862Z,96145.48
2019-05-21T04:01:59.850Z,96147.20
2019-05-21T04:04:46.973Z,96153.02
2019-05-21T04:07:15.273Z,96151.63
2019-05-21T04:09:43.332Z,96157.86
2019-05-21T04:12:30.312Z,96160.52
2019-05-21T04:17:54.756Z,96162.61
2019-05-21T04:20:41.952Z,95962.82
2019-05-21T04:23:09.992Z,96160.20
2019-05-21T04:25:38.216Z,96168.67
2019-05-21T04:28:06.226Z,96169.66
2019-05-21T04:30:34.098Z,96173.28
2019-05-21T04:35:49.268Z,96183.05
2019-05-21T04:38:17.299Z,96180.73
2019-05-21T04:40:45.257Z,96181.34
2019-05-21T04:43:32.471Z,96188.27
2019-05-21T04:46:00.855Z,96192.07
2019-05-21T04:48:28.840Z,96188.09
2019-05-21T04:50:56.783Z,96191.70
2019-05-21T04:53:24.708Z,96193.25
2019-05-21T04:55:52.679Z,96196.48
2019-05-21T04:58:39.845Z,96195.75
2019-05-21T05:01:07.832Z,96197.64
2019-05-21T05:03:54.814Z,96202.88
2019-05-21T05:06:22.990Z,96202.09
2019-05-21T05:11:37.902Z,96203.66
2019-05-21T05:14:05.812Z,96200.91
2019-05-21T05:16:33.717Z,96204.17
2019-05-21T05:19:20.867Z,96205.33
2019-05-21T05:21:49.339Z,96211.40
2019-05-21T05:24:37.188Z,96215.59
2019-05-21T05:27:05.981Z,96216.20
2019-05-21T05:29:33.931Z,96217.19
2019-05-21T05:32:01.904Z,96218.17
2019-05-21T05:34:29.768Z,96213.26
2019-05-21T05:36:57.794Z,96221.78
2019-05-21T05:39:25.792Z,96223.94
2019-05-21T05:41:53.744Z,96226.28
2019-05-21T05:44:21.704Z,96227.06
2019-05-21T05:46:49.608Z,96232.05
2019-05-21T05:49:36.513Z,96166.13
2019-05-21T05:52:04.672Z,96243.59
2019-05-21T05:54:32.918Z,96245.55
2019-05-21T05:57:01.036Z,96244.56
2019-05-21T05:59:28.966Z,96241.73
2019-05-21T06:01:57.175Z,96247.20
2019-05-21T06:04:25.385Z,96245.36
2019-05-21T06:06:53.488Z,96258.44
2019-05-21T06:09:21.686Z,96254.81
2019-05-21T06:11:49.808Z,96264.27
2019-05-21T06:14:17.952Z,96259.31
2019-05-21T06:16:46.081Z,96265.13
2019-05-21T06:19:14.138Z,96266.68
2019-05-21T06:21:42.111Z,96273.55
2019-05-21T06:24:13.352Z,96284.41
2019-05-21T06:26:40.093Z,96285.14
2019-05-21T06:29:08.415Z,96291.95
2019-05-21T06:31:36.473Z,96288.02
2019-05-21T06:34:04.535Z,96291.73
2019-05-21T06:36:32.686Z,96295.41
2019-05-21T06:39:00.886Z,96293.81
2019-05-21T06:41:29.022Z,96299.55
2019-05-21T06:43:57.133Z,96307.94
2019-05-21T06:46:25.306Z,96308.16
2019-05-21T06:48:53.352Z,96318.38
2019-05-21T06:51:21.800Z,96315.42
2019-05-21T06:53:49.750Z,96313.14
2019-05-21T06:56:18.195Z,96313.34
2019-05-21T06:58:46.215Z,96320.69
2019-05-21T07:01:14.353Z,96320.15
2019-05-21T07:03:42.439Z,96317.81
2019-05-21T07:06:10.570Z,96319.53
2019-05-21T07:08:38.661Z,96326.09
2019-05-21T07:11:06.828Z,96325.10
2019-05-21T07:13:35.233Z,96326.84
2019-05-21T07:16:03.313Z,96330.45
2019-05-21T07:18:31.412Z,96334.23
2019-05-21T07:20:59.439Z,96339.84
2019-05-21T07:23:27.500Z,96340.88
2019-05-21T07:25:55.881Z,96352.67
2019-05-21T07:28:23.963Z,96345.20
2019-05-21T07:30:52.038Z,96346.20
2019-05-21T07:33:20.124Z,96355.68
2019-05-21T07:35:48.284Z,96367.00
2019-05-21T07:38:16.370Z,96362.76
2019-05-21T07:40:44.527Z,96363.12
2019-05-21T07:43:12.511Z,96375.70
2019-05-21T07:45:40.572Z,96367.90
2019-05-21T07:48:08.642Z,96376.20
2019-05-21T07:50:36.784Z,96373.13
2019-05-21T07:53:04.876Z,96373.47
2019-05-21T07:55:33.004Z,96373.73
2019-05-21T07:58:01.171Z,96374.23
2019-05-21T08:00:29.216Z,96374.03
2019-05-21T08:02:57.270Z,96381.57
2019-05-21T08:05:25.358Z,96383.55
2019-05-21T08:07:53.396Z,96382.13
2019-05-21T08:10:21.494Z,96382.59
2019-05-21T08:12:49.687Z,96387.80
2019-05-21T08:15:17.659Z,96381.83
2019-05-21T08:17:45.787Z,96385.88
2019-05-21T08:20:14.623Z,96388.95
2019-05-21T08:22:42.917Z,96390.03
2019-05-21T08:25:14.449Z,96399.06
2019-05-21T08:27:40.984Z,96400.05
2019-05-21T08:30:08.968Z,96401.20
2019-05-21T08:32:36.852Z,96401.37
2019-05-21T08:35:04.937Z,96404.43
2019-05-21T08:37:33.051Z,96408.12
2019-05-21T08:40:01.019Z,96405.62
2019-05-21T08:42:29.073Z,96411.55
2019-05-21T08:44:57.060Z,96414.64
2019-05-21T08:47:25.329Z,96411.58
2019-05-21T08:49:53.362Z,96413.52
2019-05-21T08:52:21.834Z,96417.97
2019-05-21T08:54:50.890Z,96414.15
2019-05-21T08:57:18.895Z,96414.18
2019-05-21T08:59:46.958Z,96414.02
2019-05-21T09:02:14.916Z,96340.02
2019-05-21T09:04:46.319Z,96420.91
2019-05-21T09:07:12.794Z,96417.84
2019-05-21T09:09:49.809Z,96427.13
2019-05-21T09:12:10.358Z,96418.59
2019-05-21T09:14:38.368Z,96427.30
2019-05-21T09:17:06.460Z,96423.08
2019-05-21T09:19:36.538Z,96421.03
2019-05-21T09:22:04.282Z,96420.47
2019-05-21T09:24:32.311Z,96418.77
2019-05-21T09:27:00.331Z,96423.80
2019-05-21T09:29:28.402Z,96424.42
2019-05-21T09:31:56.735Z,96435.27
2019-05-21T09:34:24.942Z,96435.96
2019-05-21T09:36:52.881Z,96431.48
2019-05-21T09:39:20.807Z,96433.09
2019-05-21T09:41:48.844Z,96438.73
2019-05-21T09:44:16.842Z,96441.98
2019-05-21T09:46:44.744Z,96441.42
2019-05-21T09:49:12.810Z,96435.53
2019-05-21T09:51:41.194Z,96450.26
2019-05-21T09:54:10.815Z,96437.73
2019-05-21T09:56:38.831Z,96445.42
2019-05-21T09:59:25.819Z,96451.45
2019-05-21T10:01:55.558Z,96449.30
2019-05-21T10:04:23.654Z,96454.41
2019-05-21T10:06:51.697Z,96459.19
2019-05-21T10:09:20.218Z,96463.80
2019-05-21T10:11:48.152Z,96463.30
2019-05-21T10:14:16.212Z,96465.78
2019-05-21T10:16:44.430Z,96470.00
2019-05-21T10:19:12.338Z,96471.55
2019-05-21T10:21:40.311Z,96475.56
2019-05-21T10:24:08.310Z,96479.66
2019-05-21T10:26:36.322Z,96475.41
2019-05-21T10:29:04.276Z,96476.69
2019-05-21T10:31:32.296Z,96476.42
2019-05-21T10:34:00.259Z,96477.84
2019-05-21T10:36:28.298Z,96476.02
2019-05-21T10:38:56.287Z,96476.29
2019-05-21T10:41:24.273Z,96479.87
2019-05-21T10:43:52.476Z,96482.95
2019-05-21T10:46:20.368Z,96478.03
2019-05-21T10:48:48.381Z,96484.79
2019-05-21T10:51:16.342Z,96488.22
2019-05-21T10:53:44.250Z,96484.79
2019-05-21T10:56:12.347Z,96491.77
2019-05-21T10:58:40.487Z,96490.16
2019-05-21T11:01:36.321Z,96488.37
2019-05-21T11:04:15.276Z,96499.34
2019-05-21T11:06:43.741Z,96493.16
2019-05-21T11:09:17.686Z,96497.94
2019-05-21T11:11:45.703Z,96501.33
2019-05-21T11:14:13.666Z,96512.85
2019-05-21T11:16:41.750Z,96500.44
2019-05-21T11:19:09.738Z,96501.43
2019-05-21T11:21:37.773Z,96504.41
2019-05-21T11:24:05.732Z,96499.42
2019-05-21T11:26:34.172Z,96504.59
2019-05-21T11:29:02.338Z,96510.82
2019-05-21T11:31:30.234Z,96509.89
2019-05-21T11:33:58.530Z,96503.77
2019-05-21T11:36:26.755Z,96512.23
2019-05-21T11:38:54.741Z,96509.38
2019-05-21T11:41:22.741Z,96515.77
2019-05-21T11:43:50.690Z,96514.94
2019-05-21T11:46:18.927Z,96518.36
2019-05-21T11:48:46.907Z,96519.16
2019-05-21T11:51:14.813Z,96528.83
2019-05-21T11:53:43.179Z,96530.80
2019-05-21T11:56:11.092Z,96521.62
2019-05-21T11:58:40.131Z,96525.39
2019-05-21T12:01:08.212Z,96524.22
2019-05-21T12:03:36.172Z,96529.60
2019-05-21T12:06:04.270Z,96524.69
2019-05-21T12:08:32.307Z,96528.81
2019-05-21T12:11:00.462Z,96535.77
2019-05-21T12:13:28.374Z,96456.21
2019-05-21T12:15:56.685Z,96541.23
2019-05-21T12:18:24.759Z,96532.94
2019-05-21T12:20:52.706Z,96533.70
2019-05-21T12:23:20.869Z,96532.41
2019-05-21T12:25:48.878Z,96538.25
2019-05-21T12:28:16.930Z,96531.16
2019-05-21T12:30:45.026Z,96541.87
2019-05-21T12:33:13.499Z,96541.98
2019-05-21T12:35:41.476Z,96539.51
2019-05-21T12:38:09.552Z,96538.16
2019-05-21T12:40:37.447Z,96545.18
2019-05-21T12:43:05.520Z,96543.47
2019-05-21T12:45:33.725Z,96545.38
2019-05-21T12:48:01.933Z,96552.70
2019-05-21T12:50:30.217Z,96554.64
2019-05-21T12:52:58.816Z,96548.96
2019-05-21T12:55:26.910Z,96552.40
2019-05-21T12:57:55.043Z,96554.06
2019-05-21T13:00:23.215Z,96550.77
2019-05-21T13:02:51.756Z,96556.33
2019-05-21T13:05:19.962Z,96557.48
2019-05-21T13:07:48.035Z,96559.28
2019-05-21T13:10:16.216Z,96566.34
2019-05-21T13:12:44.442Z,96563.20
2019-05-21T13:15:12.605Z,96563.00
2019-05-21T13:17:40.770Z,96569.39
2019-05-21T13:20:10.920Z,96578.64
2019-05-21T13:22:39.216Z,96574.20
2019-05-21T13:25:07.376Z,96582.59
2019-05-21T13:27:35.536Z,96587.71
2019-05-21T13:30:03.971Z,96583.45
2019-05-21T13:32:32.517Z,96590.77
2019-05-21T13:35:00.642Z,96591.48
2019-05-21T13:37:28.796Z,96593.03
2019-05-21T13:39:57.058Z,96552.97
2019-05-21T13:42:27.642Z,96591.56
2019-05-21T13:44:55.505Z,96598.03
2019-05-21T13:47:23.770Z,96602.72
2019-05-21T13:49:51.911Z,96600.78
2019-05-21T13:52:20.065Z,96606.27
2019-05-21T13:54:48.162Z,96605.83
2019-05-21T13:57:16.353Z,96615.36
2019-05-21T13:59:44.569Z,96612.53
2019-05-21T14:02:14.023Z,96610.67
2019-05-21T14:04:42.157Z,96613.66
2019-05-21T14:07:10.324Z,96617.42
2019-05-21T14:09:38.407Z,96626.39
2019-05-21T14:12:06.463Z,96618.85
2019-05-21T14:14:34.534Z,96625.41
2019-05-21T14:17:02.967Z,96628.81
2019-05-21T14:19:31.141Z,96619.72
2019-05-21T14:21:59.389Z,96629.17
2019-05-21T14:24:27.484Z,96627.70
2019-05-21T14:26:55.543Z,96629.38
2019-05-21T14:29:23.562Z,96637.77
2019-05-21T14:31:52.004Z,96631.84
2019-05-21T14:34:20.077Z,96641.02
2019-05-21T14:36:48.147Z,96641.66
2019-05-21T14:39:17.654Z,96636.69
2019-05-21T14:41:45.693Z,96642.88
2019-05-21T14:44:13.750Z,96642.45
2019-05-21T14:46:41.814Z,96650.12
2019-05-21T14:49:10.329Z,96648.92
2019-05-21T14:51:38.316Z,96657.18
2019-05-21T14:54:06.431Z,96656.16
2019-05-21T14:56:34.599Z,96651.42
2019-05-21T14:59:02.634Z,96658.10
2019-05-21T15:01:31.062Z,96661.59
2019-05-21T15:03:59.471Z,96664.16
2019-05-21T15:06:27.635Z,96590.09
2019-05-21T15:08:55.940Z,96658.01
2019-05-21T15:11:23.846Z,96678.05
2019-05-21T15:13:51.988Z,96681.28
2019-05-21T15:16:20.161Z,96673.42
2019-05-21T15:18:48.283Z,96683.10
2019-05-21T15:21:26.452Z,96682.42
2019-05-21T15:23:54.600Z,96679.22
2019-05-21T15:26:22.816Z,96681.95
2019-05-21T15:28:50.917Z,96684.22
2019-05-21T15:31:19.269Z,96680.61
2019-05-21T15:33:47.237Z,96685.56
2019-05-21T15:36:15.278Z,96685.02
2019-05-21T15:38:50.375Z,96691.05
2019-05-21T15:41:13.287Z,96691.20
2019-05-21T15:43:41.350Z,96694.91
2019-05-21T15:46:09.518Z,96697.95
2019-05-21T15:48:37.585Z,96698.83
2019-05-21T15:51:05.768Z,96696.81
2019-05-21T15:53:33.937Z,96709.47
2019-05-21T15:56:01.987Z,96713.16
2019-05-21T15:58:30.076Z,96719.27
2019-05-21T16:00:58.156Z,96717.88
2019-05-21T16:03:26.229Z,96720.77
2019-05-21T16:05:54.637Z,96724.58
2019-05-21T16:08:22.789Z,96730.63
2019-05-21T16:10:50.869Z,96734.13
2019-05-21T16:13:19.180Z,96732.98
2019-05-21T16:15:47.268Z,96742.48
2019-05-21T16:18:15.322Z,96737.28
2019-05-21T16:20:43.394Z,96738.67
2019-05-21T16:23:11.614Z,96739.37
2019-05-21T16:25:39.695Z,96742.25
2019-05-21T16:28:07.728Z,96743.95
2019-05-21T16:30:35.727Z,96746.42
2019-05-21T16:33:03.695Z,96750.03
2019-05-21T16:35:31.801Z,96757.28
2019-05-21T16:37:59.821Z,96766.23
2019-05-21T16:40:27.875Z,96754.58
2019-05-21T16:42:55.913Z,96759.42
2019-05-21T16:45:24.029Z,96760.77
2019-05-21T16:47:52.114Z,96763.03
2019-05-21T16:50:20.183Z,96764.59
2019-05-21T16:52:48.261Z,96769.14
2019-05-21T16:55:16.363Z,96778.50
2019-05-21T16:57:44.406Z,96775.24
2019-05-21T17:00:14.646Z,96776.16
2019-05-21T17:02:42.823Z,96779.30
2019-05-21T17:05:10.910Z,96780.73
2019-05-21T17:07:38.998Z,96788.48
2019-05-21T17:10:07.034Z,96788.69
2019-05-21T17:12:35.100Z,96785.25
2019-05-21T17:15:03.208Z,96795.14
2019-05-21T17:17:31.242Z,96795.14
2019-05-21T17:19:59.341Z,96803.50
2019-05-21T17:22:27.438Z,96803.65
2019-05-21T17:24:55.593Z,96803.59
2019-05-21T17:27:23.791Z,96806.94
2019-05-21T17:29:52.240Z,96809.70
2019-05-21T17:32:20.634Z,96808.63
2019-05-21T17:34:48.567Z,96809.28
2019-05-21T17:37:16.651Z,96811.09
2019-05-21T17:39:44.798Z,96813.39
2019-05-21T17:42:15.868Z,96815.03
2019-05-21T17:44:43.596Z,96817.59
2019-05-21T17:47:11.743Z,96820.78
2019-05-21T17:49:39.932Z,96822.55
2019-05-21T17:52:07.977Z,96826.83
2019-05-21T17:54:36.049Z,96825.84
2019-05-21T17:57:04.158Z,96831.95
2019-05-21T17:59:32.154Z,96833.14
2019-05-21T18:02:01.603Z,96836.05
2019-05-21T18:04:29.702Z,96838.75
2019-05-21T18:06:57.735Z,96845.45
2019-05-21T18:09:26.537Z,96851.41
2019-05-21T18:11:54.694Z,96849.84
2019-05-21T18:14:23.995Z,96857.44
2019-05-21T18:16:52.237Z,96861.20
2019-05-21T18:19:20.678Z,96864.84
2019-05-21T18:21:48.793Z,96866.89
2019-05-21T18:24:16.745Z,96870.30
2019-05-21T18:26:44.628Z,96866.59
2019-05-21T18:29:12.526Z,96874.50
2019-05-21T18:31:40.653Z,96872.73
2019-05-21T18:34:08.462Z,96879.98
2019-05-21T18:36:36.530Z,96879.39
2019-05-21T18:39:05.407Z,96892.27
2019-05-21T18:41:33.429Z,96894.59
2019-05-21T18:44:01.458Z,96898.88
2019-05-21T18:46:29.488Z,96900.38
2019-05-21T18:48:57.509Z,96905.03
2019-05-21T18:51:25.534Z,96916.84
2019-05-21T18:53:53.430Z,96918.47
2019-05-21T18:56:21.493Z,96915.77
2019-05-21T18:58:49.968Z,96919.58
2019-05-21T19:01:19.070Z,96921.48
2019-05-21T19:03:46.921Z,96925.14
2019-05-21T19:06:14.878Z,96929.72
2019-05-21T19:08:42.852Z,96932.11
2019-05-21T19:11:10.907Z,96946.44
2019-05-21T19:13:38.936Z,96943.73
2019-05-21T19:16:06.879Z,96950.00
2019-05-21T19:18:34.778Z,96950.80
2019-05-21T19:21:02.910Z,96958.09
2019-05-21T19:23:30.902Z,96962.18
2019-05-21T19:25:58.904Z,96970.48
2019-05-21T19:28:26.706Z,96972.98
2019-05-21T19:30:54.728Z,96979.52
2019-05-21T19:33:22.658Z,96979.06
2019-05-21T19:35:50.675Z,96985.36
2019-05-21T19:38:18.756Z,96989.03
2019-05-21T19:40:46.750Z,96992.53
2019-05-21T19:43:14.864Z,96994.57
2019-05-21T19:45:42.679Z,97004.91
2019-05-21T19:48:10.610Z,97001.21
2019-05-21T19:50:38.852Z,97004.15
2019-05-21T19:53:07.292Z,97005.02
2019-05-21T19:55:37.129Z,97006.69
2019-05-21T19:58:05.024Z,97012.01
2019-05-21T20:00:35.362Z,97016.50
2019-05-21T20:03:04.390Z,97020.45
2019-05-21T20:05:32.422Z,97016.16
2019-05-21T20:08:00.344Z,97024.78
2019-05-21T20:10:28.357Z,97026.50
2019-05-21T20:12:56.582Z,97024.78
2019-05-21T20:15:24.475Z,97031.85
2019-05-21T20:18:06.194Z,97027.97
2019-05-21T20:20:22.845Z,97027.14
2019-05-21T20:22:50.829Z,97034.92
2019-05-21T20:25:18.947Z,97041.59
2019-05-21T20:27:47.606Z,97046.28
2019-05-21T20:30:19.029Z,97048.09
2019-05-21T20:32:48.539Z,97047.78
2019-05-21T20:35:17.923Z,97049.34
2019-05-21T20:37:47.137Z,97052.14
2019-05-21T20:40:15.540Z,97045.66
2019-05-21T20:42:43.750Z,97051.75
2019-05-21T20:45:13.596Z,97052.28
2019-05-21T20:47:42.112Z,97056.59
2019-05-21T20:50:12.733Z,97049.13
2019-05-21T20:52:40.829Z,97050.72
2019-05-21T20:55:09.144Z,97054.66
2019-05-21T20:57:37.136Z,97058.15
2019-05-21T21:00:05.434Z,97058.57
2019-05-21T21:02:33.799Z,97058.89
2019-05-21T21:05:01.886Z,97056.88
2019-05-21T21:07:30.348Z,97064.02
2019-05-21T21:09:58.306Z,97068.95
2019-05-21T21:12:26.532Z,97072.20
2019-05-21T21:14:54.807Z,97065.80
2019-05-21T21:17:23.762Z,97066.67
2019-05-21T21:19:52.046Z,97075.02
2019-05-21T21:22:20.033Z,97074.87
2019-05-21T21:24:48.239Z,97078.18
2019-05-21T21:27:16.396Z,97071.53
2019-05-21T21:29:44.326Z,97077.61
2019-05-21T21:32:12.247Z,97074.89
2019-05-21T21:34:40.299Z,97082.09
2019-05-21T21:37:08.913Z,97083.47
2019-05-21T21:39:37.532Z,97082.77
2019-05-21T21:42:07.463Z,97085.69
2019-05-21T21:44:35.452Z,97088.30
2019-05-21T21:47:03.395Z,97090.95
2019-05-21T21:49:32.649Z,97090.08
2019-05-21T21:52:00.932Z,97089.20
2019-05-21T21:54:29.604Z,97091.45
2019-05-21T21:56:57.698Z,97097.64
2019-05-21T21:59:25.632Z,97100.55
2019-05-21T22:01:55.501Z,97100.22
2019-05-21T22:04:25.322Z,97102.14
2019-05-21T22:06:54.254Z,97096.50
2019-05-21T22:09:28.999Z,97107.30
2019-05-21T22:11:58.037Z,97101.13
2019-05-21T22:14:26.669Z,97098.52
2019-05-21T22:16:54.612Z,97098.98
2019-05-21T22:19:22.893Z,97106.53
2019-05-21T22:21:51.407Z,97030.06
2019-05-21T22:24:19.653Z,97097.84
2019-05-21T22:26:48.790Z,97099.55
2019-05-21T22:29:17.345Z,97098.98
2019-05-21T22:31:45.483Z,97103.36
2019-05-21T22:34:13.401Z,97105.73
2019-05-21T22:36:41.352Z,97105.52
2019-05-21T22:39:15.485Z,97104.52
2019-05-21T22:41:43.550Z,97112.48
2019-05-21T22:44:11.518Z,97107.42
2019-05-21T22:46:39.518Z,97107.55
2019-05-21T22:49:07.409Z,97113.05
2019-05-21T22:51:35.508Z,97126.66
2019-05-21T22:54:03.494Z,97114.72
2019-05-21T22:56:31.490Z,97118.90
2019-05-21T22:58:59.606Z,97117.00
2019-05-21T23:01:28.396Z,97115.19
2019-05-21T23:03:56.879Z,97119.13
2019-05-21T23:06:24.816Z,97115.75
2019-05-21T23:08:52.967Z,97115.75
2019-05-21T23:11:23.011Z,97116.33
2019-05-21T23:13:50.586Z,97112.95
2019-05-21T23:16:18.483Z,97117.56
2019-05-21T23:18:47.056Z,97112.27
2019-05-21T23:21:16.653Z,97113.61
2019-05-21T23:23:44.688Z,97121.39
2019-05-21T23:26:12.541Z,97125.10
2019-05-21T23:28:40.861Z,97121.38
2019-05-21T23:31:10.132Z,97121.27
2019-05-21T23:33:38.626Z,97119.92
2019-05-21T23:36:06.509Z,97123.51
2019-05-21T23:38:36.975Z,97120.72
2019-05-21T23:41:05.874Z,97127.80
2019-05-21T23:43:34.326Z,97120.56
2019-05-21T23:46:02.785Z,97126.64
2019-05-21T23:48:30.897Z,97122.59
2019-05-21T23:50:59.092Z,97129.00
2019-05-21T23:53:27.240Z,97122.95
2019-05-21T23:58:30.876Z,97125.75
